sensor_id;sensor_type;location;lat;lon;timestamp;temperature;humidity
13074;DHT22;6603;47.066;15.396;2022-12-13T00:00:29;-6.20;1.00
13074;DHT22;6603;47.066;15.396;2022-12-13T00:02:55;-6.30;1.00
13074;DHT22;6603;47.066;15.396;2022-12-13T00:05:21;-6.20;1.00
13074;DHT22;6603;47.066;15.396;2022-12-13T00:07:47;-6.10;1.00
13074;DHT22;6603;47.066;15.396;2022-12-13T00:10:13;-6.10;1.00
13074;DHT22;6603;47.066;15.396;2022-12-13T00:12:39;-6.00;1.00
13074;DHT22;6603;47.066;15.396;2022-12-13T00:15:05;-6.00;1.00
13074;DHT22;6603;47.066;15.396;2022-12-13T00:17:32;-6.10;1.00
13074;DHT22;6603;47.066;15.396;2022-12-13T00:19:58;-6.20;1.00
13074;DHT22;6603;47.066;15.396;2022-12-13T00:22:24;-6.00;1.00
13074;DHT22;6603;47.066;15.396;2022-12-13T00:24:52;-5.80;1.00
13074;DHT22;6603;47.066;15.396;2022-12-13T00:27:18;-5.60;1.00
13074;DHT22;6603;47.066;15.396;2022-12-13T00:29:44;-6.10;1.00
13074;DHT22;6603;47.066;15.396;2022-12-13T00:32:10;-6.10;1.00
13074;DHT22;6603;47.066;15.396;2022-12-13T00:34:36;-6.50;1.00
13074;DHT22;6603;47.066;15.396;2022-12-13T00:37:02;-6.30;1.00
13074;DHT22;6603;47.066;15.396;2022-12-13T00:39:28;-6.50;1.00
13074;DHT22;6603;47.066;15.396;2022-12-13T00:41:54;-6.10;1.00
13074;DHT22;6603;47.066;15.396;2022-12-13T00:44:20;-6.30;1.00
13074;DHT22;6603;47.066;15.396;2022-12-13T00:46:46;-6.00;1.00
13074;DHT22;6603;47.066;15.396;2022-12-13T00:49:12;-5.80;1.00
13074;DHT22;6603;47.066;15.396;2022-12-13T00:51:39;-6.00;1.00
13074;DHT22;6603;47.066;15.396;2022-12-13T00:54:05;-6.30;1.00
13074;DHT22;6603;47.066;15.396;2022-12-13T00:56:32;-6.00;1.00
13074;DHT22;6603;47.066;15.396;2022-12-13T00:58:59;-6.40;1.00
13074;DHT22;6603;47.066;15.396;2022-12-13T01:01:28;-6.60;1.00
13074;DHT22;6603;47.066;15.396;2022-12-13T01:03:56;-6.40;1.00
13074;DHT22;6603;47.066;15.396;2022-12-13T01:08:59;-6.40;1.00
13074;DHT22;6603;47.066;15.396;2022-12-13T01:11:25;-6.70;1.00
13074;DHT22;6603;47.066;15.396;2022-12-13T01:13:51;-6.60;1.00
13074;DHT22;6603;47.066;15.396;2022-12-13T01:16:17;-6.70;1.00
13074;DHT22;6603;47.066;15.396;2022-12-13T01:18:43;-6.40;1.00
13074;DHT22;6603;47.066;15.396;2022-12-13T01:21:12;-6.40;1.00
13074;DHT22;6603;47.066;15.396;2022-12-13T01:23:39;-6.90;1.00
13074;DHT22;6603;47.066;15.396;2022-12-13T01:26:12;-6.60;1.00
13074;DHT22;6603;47.066;15.396;2022-12-13T01:28:38;-6.60;1.00
13074;DHT22;6603;47.066;15.396;2022-12-13T01:31:07;-6.60;1.00
13074;DHT22;6603;47.066;15.396;2022-12-13T01:33:33;-6.40;1.00
13074;DHT22;6603;47.066;15.396;2022-12-13T01:36:00;-6.20;1.00
13074;DHT22;6603;47.066;15.396;2022-12-13T01:38:27;-6.50;1.00
13074;DHT22;6603;47.066;15.396;2022-12-13T01:40:53;-6.60;1.00
13074;DHT22;6603;47.066;15.396;2022-12-13T01:43:27;-6.60;1.00
13074;DHT22;6603;47.066;15.396;2022-12-13T01:45:53;-6.60;1.00
13074;DHT22;6603;47.066;15.396;2022-12-13T01:48:25;-6.40;1.00
13074;DHT22;6603;47.066;15.396;2022-12-13T01:50:55;-6.30;1.00
13074;DHT22;6603;47.066;15.396;2022-12-13T01:53:28;-6.30;1.00
13074;DHT22;6603;47.066;15.396;2022-12-13T01:55:59;-6.30;1.00
13074;DHT22;6603;47.066;15.396;2022-12-13T01:58:27;-6.60;1.00
13074;DHT22;6603;47.066;15.396;2022-12-13T02:00:53;-6.90;1.00
13074;DHT22;6603;47.066;15.396;2022-12-13T02:03:21;-6.90;1.00
13074;DHT22;6603;47.066;15.396;2022-12-13T02:08:23;-6.70;1.00
13074;DHT22;6603;47.066;15.396;2022-12-13T02:10:50;-6.80;1.00
13074;DHT22;6603;47.066;15.396;2022-12-13T02:13:17;-7.20;1.00
13074;DHT22;6603;47.066;15.396;2022-12-13T02:16:07;-6.90;1.00
13074;DHT22;6603;47.066;15.396;2022-12-13T02:18:56;-6.50;1.00
13074;DHT22;6603;47.066;15.396;2022-12-13T02:21:55;-6.50;1.00
13074;DHT22;6603;47.066;15.396;2022-12-13T02:41:06;-6.80;1.00
13074;DHT22;6603;47.066;15.396;2022-12-13T02:46:34;-6.40;1.00
13074;DHT22;6603;47.066;15.396;2022-12-13T02:49:02;-6.50;1.00
13074;DHT22;6603;47.066;15.396;2022-12-13T02:51:31;-6.50;1.00
13074;DHT22;6603;47.066;15.396;2022-12-13T02:53:57;-6.80;1.00
13074;DHT22;6603;47.066;15.396;2022-12-13T03:29:34;-7.30;1.00
13074;DHT22;6603;47.066;15.396;2022-12-13T03:31:59;-7.40;1.00
13074;DHT22;6603;47.066;15.396;2022-12-13T03:34:25;-7.30;1.00
13074;DHT22;6603;47.066;15.396;2022-12-13T03:36:52;-7.10;1.00
13074;DHT22;6603;47.066;15.396;2022-12-13T03:39:19;-6.70;1.00
13074;DHT22;6603;47.066;15.396;2022-12-13T03:41:45;-6.70;1.00
13074;DHT22;6603;47.066;15.396;2022-12-13T03:44:11;-6.70;1.00
13074;DHT22;6603;47.066;15.396;2022-12-13T03:46:37;-7.00;1.00
13074;DHT22;6603;47.066;15.396;2022-12-13T03:49:03;-6.80;1.00
13074;DHT22;6603;47.066;15.396;2022-12-13T03:51:29;-7.10;1.00
13074;DHT22;6603;47.066;15.396;2022-12-13T03:53:55;-7.00;1.00
13074;DHT22;6603;47.066;15.396;2022-12-13T03:56:21;-7.10;1.00
13074;DHT22;6603;47.066;15.396;2022-12-13T03:58:47;-7.20;1.00
13074;DHT22;6603;47.066;15.396;2022-12-13T04:01:15;-6.90;1.00
13074;DHT22;6603;47.066;15.396;2022-12-13T04:03:43;-7.40;1.00
13074;DHT22;6603;47.066;15.396;2022-12-13T04:06:11;-7.10;1.00
13074;DHT22;6603;47.066;15.396;2022-12-13T04:08:38;-6.90;1.00
13074;DHT22;6603;47.066;15.396;2022-12-13T04:11:05;-7.50;1.00
13074;DHT22;6603;47.066;15.396;2022-12-13T04:13:51;-7.10;1.00
13074;DHT22;6603;47.066;15.396;2022-12-13T04:16:17;-7.10;1.00
13074;DHT22;6603;47.066;15.396;2022-12-13T04:18:42;-7.30;1.00
13074;DHT22;6603;47.066;15.396;2022-12-13T04:21:08;-7.20;1.00
13074;DHT22;6603;47.066;15.396;2022-12-13T04:23:34;-7.50;1.00
13074;DHT22;6603;47.066;15.396;2022-12-13T04:26:00;-7.80;1.00
13074;DHT22;6603;47.066;15.396;2022-12-13T04:28:27;-8.00;1.00
13074;DHT22;6603;47.066;15.396;2022-12-13T04:30:53;-7.60;38.60
13074;DHT22;6603;47.066;15.396;2022-12-13T04:33:19;-7.40;1.00
13074;DHT22;6603;47.066;15.396;2022-12-13T04:35:47;-7.40;1.00
13074;DHT22;6603;47.066;15.396;2022-12-13T04:38:13;-7.60;1.00
13074;DHT22;6603;47.066;15.396;2022-12-13T04:40:39;-7.70;1.00
13074;DHT22;6603;47.066;15.396;2022-12-13T04:43:05;-8.00;1.00
13074;DHT22;6603;47.066;15.396;2022-12-13T04:45:30;-8.00;1.00
13074;DHT22;6603;47.066;15.396;2022-12-13T04:47:56;-8.00;1.00
13074;DHT22;6603;47.066;15.396;2022-12-13T04:50:22;-7.80;1.00
13074;DHT22;6603;47.066;15.396;2022-12-13T04:52:48;-7.60;1.00
13074;DHT22;6603;47.066;15.396;2022-12-13T04:55:14;-7.40;1.00
13074;DHT22;6603;47.066;15.396;2022-12-13T04:57:40;-7.30;1.00
13074;DHT22;6603;47.066;15.396;2022-12-13T05:00:09;-7.20;1.00
13074;DHT22;6603;47.066;15.396;2022-12-13T05:02:36;-7.10;1.00
13074;DHT22;6603;47.066;15.396;2022-12-13T05:05:02;-7.40;1.00
13074;DHT22;6603;47.066;15.396;2022-12-13T05:07:28;-7.10;1.00
13074;DHT22;6603;47.066;15.396;2022-12-13T05:09:54;-7.40;1.00
13074;DHT22;6603;47.066;15.396;2022-12-13T05:12:20;-7.60;1.00
13074;DHT22;6603;47.066;15.396;2022-12-13T05:14:46;-8.00;1.00
13074;DHT22;6603;47.066;15.396;2022-12-13T05:17:12;-7.60;1.00
13074;DHT22;6603;47.066;15.396;2022-12-13T05:19:37;-7.60;1.00
13074;DHT22;6603;47.066;15.396;2022-12-13T05:22:03;-7.30;1.00
13074;DHT22;6603;47.066;15.396;2022-12-13T05:24:30;-7.30;1.00
13074;DHT22;6603;47.066;15.396;2022-12-13T05:26:57;-7.10;1.00
13074;DHT22;6603;47.066;15.396;2022-12-13T05:29:23;-7.30;1.00
13074;DHT22;6603;47.066;15.396;2022-12-13T05:31:49;-7.80;1.00
13074;DHT22;6603;47.066;15.396;2022-12-13T05:34:15;-7.70;1.00
13074;DHT22;6603;47.066;15.396;2022-12-13T05:36:41;-7.50;1.00
13074;DHT22;6603;47.066;15.396;2022-12-13T05:39:07;-7.30;1.00
13074;DHT22;6603;47.066;15.396;2022-12-13T05:41:34;-7.30;1.00
13074;DHT22;6603;47.066;15.396;2022-12-13T05:44:01;-7.40;1.00
13074;DHT22;6603;47.066;15.396;2022-12-13T05:46:27;-7.30;1.00
13074;DHT22;6603;47.066;15.396;2022-12-13T05:48:53;-7.40;1.00
13074;DHT22;6603;47.066;15.396;2022-12-13T05:51:19;-7.30;1.00
13074;DHT22;6603;47.066;15.396;2022-12-13T05:53:45;-7.20;1.00
13074;DHT22;6603;47.066;15.396;2022-12-13T05:56:11;-7.20;1.00
13074;DHT22;6603;47.066;15.396;2022-12-13T05:58:39;-7.30;1.00
13074;DHT22;6603;47.066;15.396;2022-12-13T06:01:07;-7.40;1.00
13074;DHT22;6603;47.066;15.396;2022-12-13T06:03:34;-7.40;99.90
13074;DHT22;6603;47.066;15.396;2022-12-13T06:06:02;-7.90;1.00
13074;DHT22;6603;47.066;15.396;2022-12-13T06:08:29;-7.70;1.00
13074;DHT22;6603;47.066;15.396;2022-12-13T06:11:00;-7.40;1.00
13074;DHT22;6603;47.066;15.396;2022-12-13T06:13:27;-7.80;1.00
13074;DHT22;6603;47.066;15.396;2022-12-13T06:15:53;-7.40;1.00
13074;DHT22;6603;47.066;15.396;2022-12-13T06:18:19;-7.30;1.00
13074;DHT22;6603;47.066;15.396;2022-12-13T06:20:55;-7.80;1.00
13074;DHT22;6603;47.066;15.396;2022-12-13T06:23:23;-7.70;1.00
13074;DHT22;6603;47.066;15.396;2022-12-13T06:25:48;-7.80;1.00
13074;DHT22;6603;47.066;15.396;2022-12-13T06:28:15;-7.70;1.00
13074;DHT22;6603;47.066;15.396;2022-12-13T06:30:40;-7.80;1.00
13074;DHT22;6603;47.066;15.396;2022-12-13T06:33:07;-8.00;1.00
13074;DHT22;6603;47.066;15.396;2022-12-13T06:35:33;-7.60;1.00
13074;DHT22;6603;47.066;15.396;2022-12-13T06:37:59;-7.40;1.00
13074;DHT22;6603;47.066;15.396;2022-12-13T06:40:25;-7.20;1.00
13074;DHT22;6603;47.066;15.396;2022-12-13T06:42:51;-7.30;1.00
13074;DHT22;6603;47.066;15.396;2022-12-13T06:45:17;-7.20;1.00
13074;DHT22;6603;47.066;15.396;2022-12-13T06:47:43;-7.20;1.00
13074;DHT22;6603;47.066;15.396;2022-12-13T06:50:09;-7.20;1.00
13074;DHT22;6603;47.066;15.396;2022-12-13T06:52:35;-7.50;1.00
13074;DHT22;6603;47.066;15.396;2022-12-13T06:55:01;-7.40;1.00
13074;DHT22;6603;47.066;15.396;2022-12-13T06:57:27;-7.80;1.00
13074;DHT22;6603;47.066;15.396;2022-12-13T06:59:53;-8.00;1.00
13074;DHT22;6603;47.066;15.396;2022-12-13T07:02:19;-8.00;1.00
13074;DHT22;6603;47.066;15.396;2022-12-13T07:04:45;-7.50;1.00
13074;DHT22;6603;47.066;15.396;2022-12-13T07:07:11;-7.20;1.00
13074;DHT22;6603;47.066;15.396;2022-12-13T07:09:37;-7.50;1.00
13074;DHT22;6603;47.066;15.396;2022-12-13T07:12:03;-7.60;1.00
13074;DHT22;6603;47.066;15.396;2022-12-13T07:14:29;-7.50;1.00
13074;DHT22;6603;47.066;15.396;2022-12-13T07:16:55;-7.20;1.00
13074;DHT22;6603;47.066;15.396;2022-12-13T07:19:21;-7.10;1.00
13074;DHT22;6603;47.066;15.396;2022-12-13T07:21:47;-6.90;1.00
13074;DHT22;6603;47.066;15.396;2022-12-13T07:24:13;-6.70;1.00
13074;DHT22;6603;47.066;15.396;2022-12-13T07:26:39;-6.90;1.00
13074;DHT22;6603;47.066;15.396;2022-12-13T07:29:05;-7.10;1.00
13074;DHT22;6603;47.066;15.396;2022-12-13T07:31:34;-7.30;1.00
13074;DHT22;6603;47.066;15.396;2022-12-13T07:34:01;-6.80;1.00
13074;DHT22;6603;47.066;15.396;2022-12-13T07:36:27;-6.90;1.00
13074;DHT22;6603;47.066;15.396;2022-12-13T07:38:54;-6.80;1.00
13074;DHT22;6603;47.066;15.396;2022-12-13T07:41:21;-6.40;1.00
13074;DHT22;6603;47.066;15.396;2022-12-13T07:43:47;-6.20;1.00
13074;DHT22;6603;47.066;15.396;2022-12-13T07:46:14;-6.00;1.00
13074;DHT22;6603;47.066;15.396;2022-12-13T07:48:40;-5.80;1.00
13074;DHT22;6603;47.066;15.396;2022-12-13T07:51:08;-6.00;1.00
13074;DHT22;6603;47.066;15.396;2022-12-13T07:53:37;-5.90;1.00
13074;DHT22;6603;47.066;15.396;2022-12-13T07:56:05;-5.70;1.00
13074;DHT22;6603;47.066;15.396;2022-12-13T07:58:31;-5.60;1.00
13074;DHT22;6603;47.066;15.396;2022-12-13T08:01:03;-5.50;1.00
13074;DHT22;6603;47.066;15.396;2022-12-13T08:03:30;-5.60;99.90
13074;DHT22;6603;47.066;15.396;2022-12-13T08:06:07;-5.30;1.00
13074;DHT22;6603;47.066;15.396;2022-12-13T08:08:35;-5.20;1.00
13074;DHT22;6603;47.066;15.396;2022-12-13T08:11:03;-5.00;99.90
13074;DHT22;6603;47.066;15.396;2022-12-13T08:13:29;-5.10;99.90
13074;DHT22;6603;47.066;15.396;2022-12-13T08:16:03;-5.00;1.00
13074;DHT22;6603;47.066;15.396;2022-12-13T08:18:31;-4.90;99.90
13074;DHT22;6603;47.066;15.396;2022-12-13T08:20:59;-4.70;99.90
13074;DHT22;6603;47.066;15.396;2022-12-13T08:23:26;-4.60;1.00
13074;DHT22;6603;47.066;15.396;2022-12-13T08:25:53;-4.50;99.90
13074;DHT22;6603;47.066;15.396;2022-12-13T08:28:19;-4.40;99.90
13074;DHT22;6603;47.066;15.396;2022-12-13T08:30:47;-4.40;1.00
13074;DHT22;6603;47.066;15.396;2022-12-13T08:33:14;-4.50;51.60
13074;DHT22;6603;47.066;15.396;2022-12-13T08:35:40;-4.40;78.80
13074;DHT22;6603;47.066;15.396;2022-12-13T08:38:06;-4.20;99.90
13074;DHT22;6603;47.066;15.396;2022-12-13T08:40:32;-4.20;1.00
13074;DHT22;6603;47.066;15.396;2022-12-13T08:43:00;-4.30;1.00
13074;DHT22;6603;47.066;15.396;2022-12-13T08:45:26;-4.10;1.00
13074;DHT22;6603;47.066;15.396;2022-12-13T08:47:53;-4.00;1.00
13074;DHT22;6603;47.066;15.396;2022-12-13T08:50:19;-4.10;1.00
13074;DHT22;6603;47.066;15.396;2022-12-13T08:52:45;-3.90;1.00
13074;DHT22;6603;47.066;15.396;2022-12-13T08:55:12;-3.70;1.00
13074;DHT22;6603;47.066;15.396;2022-12-13T08:57:39;-3.60;99.90
13074;DHT22;6603;47.066;15.396;2022-12-13T09:00:08;-3.80;1.00
13074;DHT22;6603;47.066;15.396;2022-12-13T09:02:36;-3.40;1.00
13074;DHT22;6603;47.066;15.396;2022-12-13T09:05:03;-3.40;1.00
13074;DHT22;6603;47.066;15.396;2022-12-13T09:07:29;-3.50;1.00
13074;DHT22;6603;47.066;15.396;2022-12-13T09:09:55;-3.40;1.00
13074;DHT22;6603;47.066;15.396;2022-12-13T09:12:21;-3.40;1.00
13074;DHT22;6603;47.066;15.396;2022-12-13T09:14:47;-3.30;1.00
13074;DHT22;6603;47.066;15.396;2022-12-13T09:17:14;-3.20;88.00
13074;DHT22;6603;47.066;15.396;2022-12-13T09:19:41;-3.30;99.90
13074;DHT22;6603;47.066;15.396;2022-12-13T09:22:07;-3.10;1.00
13074;DHT22;6603;47.066;15.396;2022-12-13T09:24:33;-3.10;1.00
13074;DHT22;6603;47.066;15.396;2022-12-13T09:26:59;-3.20;1.00
13074;DHT22;6603;47.066;15.396;2022-12-13T09:29:25;-3.20;99.90
13074;DHT22;6603;47.066;15.396;2022-12-13T09:31:51;-3.10;99.90
13074;DHT22;6603;47.066;15.396;2022-12-13T09:34:17;-3.00;1.00
13074;DHT22;6603;47.066;15.396;2022-12-13T09:36:43;-2.80;99.90
13074;DHT22;6603;47.066;15.396;2022-12-13T09:39:09;-2.60;1.00
13074;DHT22;6603;47.066;15.396;2022-12-13T09:41:41;-2.60;99.90
13074;DHT22;6603;47.066;15.396;2022-12-13T09:44:13;-2.40;99.90
13074;DHT22;6603;47.066;15.396;2022-12-13T09:46:44;-2.40;1.00
13074;DHT22;6603;47.066;15.396;2022-12-13T09:49:37;-2.50;1.00
13074;DHT22;6603;47.066;15.396;2022-12-13T09:52:05;-2.50;1.00
13074;DHT22;6603;47.066;15.396;2022-12-13T09:54:32;-2.30;99.90
13074;DHT22;6603;47.066;15.396;2022-12-13T09:56:59;-2.10;1.00
13074;DHT22;6603;47.066;15.396;2022-12-13T09:59:31;-2.10;1.00
13074;DHT22;6603;47.066;15.396;2022-12-13T10:02:33;-2.10;1.00
13074;DHT22;6603;47.066;15.396;2022-12-13T10:05:21;-2.10;99.90
13074;DHT22;6603;47.066;15.396;2022-12-13T10:07:52;-2.00;1.00
13074;DHT22;6603;47.066;15.396;2022-12-13T10:10:20;-2.00;1.00
13074;DHT22;6603;47.066;15.396;2022-12-13T10:13:02;-2.10;99.90
13074;DHT22;6603;47.066;15.396;2022-12-13T10:15:32;-1.90;1.00
13074;DHT22;6603;47.066;15.396;2022-12-13T10:18:02;-1.70;99.90
13074;DHT22;6603;47.066;15.396;2022-12-13T10:20:28;-1.70;99.90
13074;DHT22;6603;47.066;15.396;2022-12-13T10:22:55;-1.60;47.50
13074;DHT22;6603;47.066;15.396;2022-12-13T10:25:53;-1.50;99.90
13074;DHT22;6603;47.066;15.396;2022-12-13T10:28:30;-1.60;82.80
13074;DHT22;6603;47.066;15.396;2022-12-13T10:30:57;-1.40;1.00
13074;DHT22;6603;47.066;15.396;2022-12-13T10:33:27;-1.40;1.00
13074;DHT22;6603;47.066;15.396;2022-12-13T10:36:15;-1.20;47.50
13074;DHT22;6603;47.066;15.396;2022-12-13T10:38:45;-1.30;1.00
13074;DHT22;6603;47.066;15.396;2022-12-13T10:41:46;-1.20;1.00
13074;DHT22;6603;47.066;15.396;2022-12-13T10:44:18;-1.20;1.00
13074;DHT22;6603;47.066;15.396;2022-12-13T10:46:57;-1.10;1.00
13074;DHT22;6603;47.066;15.396;2022-12-13T10:49:33;-1.10;1.00
13074;DHT22;6603;47.066;15.396;2022-12-13T10:52:01;-1.00;1.00
13074;DHT22;6603;47.066;15.396;2022-12-13T10:54:30;-0.90;1.00
13074;DHT22;6603;47.066;15.396;2022-12-13T10:56:57;-0.80;1.00
13074;DHT22;6603;47.066;15.396;2022-12-13T10:59:35;-0.80;1.00
13074;DHT22;6603;47.066;15.396;2022-12-13T11:02:38;-0.80;1.00
13074;DHT22;6603;47.066;15.396;2022-12-13T11:05:35;-0.90;1.00
13074;DHT22;6603;47.066;15.396;2022-12-13T11:10:31;-0.70;1.00
13074;DHT22;6603;47.066;15.396;2022-12-13T11:13:02;-0.70;1.00
13074;DHT22;6603;47.066;15.396;2022-12-13T11:15:32;-0.70;1.00
13074;DHT22;6603;47.066;15.396;2022-12-13T11:18:02;-0.70;99.90
13074;DHT22;6603;47.066;15.396;2022-12-13T11:20:35;-0.60;1.00
13074;DHT22;6603;47.066;15.396;2022-12-13T11:23:03;-0.50;1.00
13074;DHT22;6603;47.066;15.396;2022-12-13T11:25:40;-0.40;99.90
13074;DHT22;6603;47.066;15.396;2022-12-13T11:33:53;-0.20;1.00
13074;DHT22;6603;47.066;15.396;2022-12-13T11:36:30;-0.30;99.90
13074;DHT22;6603;47.066;15.396;2022-12-13T11:39:31;-0.20;99.90
13074;DHT22;6603;47.066;15.396;2022-12-13T11:42:21;-0.20;99.90
13074;DHT22;6603;47.066;15.396;2022-12-13T11:48:07;-0.30;99.90
13074;DHT22;6603;47.066;15.396;2022-12-13T11:51:00;-0.30;99.90
13074;DHT22;6603;47.066;15.396;2022-12-13T11:53:53;-0.40;99.90
13074;DHT22;6603;47.066;15.396;2022-12-13T11:56:24;-0.50;99.90
13074;DHT22;6603;47.066;15.396;2022-12-13T12:01:48;-0.50;99.90
13074;DHT22;6603;47.066;15.396;2022-12-13T12:04:18;-0.40;99.90
13074;DHT22;6603;47.066;15.396;2022-12-13T12:07:09;-0.30;99.90
13074;DHT22;6603;47.066;15.396;2022-12-13T12:09:40;-0.40;99.90
13074;DHT22;6603;47.066;15.396;2022-12-13T12:12:16;-0.40;99.90
13074;DHT22;6603;47.066;15.396;2022-12-13T12:15:11;-0.20;99.90
13074;DHT22;6603;47.066;15.396;2022-12-13T12:17:39;-0.20;99.90
13074;DHT22;6603;47.066;15.396;2022-12-13T12:20:09;0.00;99.90
13074;DHT22;6603;47.066;15.396;2022-12-13T12:22:55;0.00;99.90
13074;DHT22;6603;47.066;15.396;2022-12-13T12:39:23;0.40;99.90
13074;DHT22;6603;47.066;15.396;2022-12-13T12:45:12;0.30;99.90
13074;DHT22;6603;47.066;15.396;2022-12-13T12:50:31;0.40;99.90
13074;DHT22;6603;47.066;15.396;2022-12-13T12:56:20;0.30;99.90
13074;DHT22;6603;47.066;15.396;2022-12-13T12:59:12;0.20;99.90
13074;DHT22;6603;47.066;15.396;2022-12-13T13:05:07;0.20;99.90
13074;DHT22;6603;47.066;15.396;2022-12-13T13:07:41;0.30;99.90
13074;DHT22;6603;47.066;15.396;2022-12-13T13:10:10;0.10;71.40
13074;DHT22;6603;47.066;15.396;2022-12-13T13:12:39;0.20;61.70
13074;DHT22;6603;47.066;15.396;2022-12-13T13:15:51;0.30;99.90
13074;DHT22;6603;47.066;15.396;2022-12-13T13:18:43;0.10;93.70
13074;DHT22;6603;47.066;15.396;2022-12-13T13:21:34;0.00;99.90
13074;DHT22;6603;47.066;15.396;2022-12-13T13:26:42;0.00;99.90
13074;DHT22;6603;47.066;15.396;2022-12-13T13:34:44;-0.10;99.90
13074;DHT22;6603;47.066;15.396;2022-12-13T13:37:43;-0.20;99.90
13074;DHT22;6603;47.066;15.396;2022-12-13T13:45:28;-0.40;99.90
13074;DHT22;6603;47.066;15.396;2022-12-13T13:55:42;-0.50;99.90
13074;DHT22;6603;47.066;15.396;2022-12-13T14:09:52;-0.90;99.90
13074;DHT22;6603;47.066;15.396;2022-12-13T14:29:23;-1.40;1.00
13074;DHT22;6603;47.066;15.396;2022-12-13T14:31:52;-1.50;1.00
13074;DHT22;6603;47.066;15.396;2022-12-13T14:34:25;-1.50;1.00
13074;DHT22;6603;47.066;15.396;2022-12-13T14:36:57;-1.70;99.90
13074;DHT22;6603;47.066;15.396;2022-12-13T14:39:25;-1.70;99.90
13074;DHT22;6603;47.066;15.396;2022-12-13T14:41:53;-1.80;99.90
13074;DHT22;6603;47.066;15.396;2022-12-13T14:46:55;-2.10;99.90
13074;DHT22;6603;47.066;15.396;2022-12-13T14:49:23;-2.20;1.00
13074;DHT22;6603;47.066;15.396;2022-12-13T14:52:17;-2.30;1.00
13074;DHT22;6603;47.066;15.396;2022-12-13T14:54:56;-2.40;1.00
13074;DHT22;6603;47.066;15.396;2022-12-13T14:57:26;-2.50;1.00
13074;DHT22;6603;47.066;15.396;2022-12-13T14:59:55;-2.30;1.00
13074;DHT22;6603;47.066;15.396;2022-12-13T15:02:27;-2.20;99.90
13074;DHT22;6603;47.066;15.396;2022-12-13T15:04:59;-2.30;1.00
13074;DHT22;6603;47.066;15.396;2022-12-13T15:07:34;-2.30;99.90
13074;DHT22;6603;47.066;15.396;2022-12-13T15:10:22;-2.20;99.90
13074;DHT22;6603;47.066;15.396;2022-12-13T15:12:53;-2.40;99.90
13074;DHT22;6603;47.066;15.396;2022-12-13T15:15:36;-2.50;66.70
13074;DHT22;6603;47.066;15.396;2022-12-13T15:20:32;-2.50;1.00
13074;DHT22;6603;47.066;15.396;2022-12-13T15:23:09;-2.50;99.90
13074;DHT22;6603;47.066;15.396;2022-12-13T15:25:36;-2.40;1.00
13074;DHT22;6603;47.066;15.396;2022-12-13T15:28:04;-2.70;1.00
13074;DHT22;6603;47.066;15.396;2022-12-13T15:30:34;-2.80;1.00
13074;DHT22;6603;47.066;15.396;2022-12-13T15:33:16;-2.80;1.00
13074;DHT22;6603;47.066;15.396;2022-12-13T15:35:44;-2.60;1.00
13074;DHT22;6603;47.066;15.396;2022-12-13T15:38:12;-2.60;1.00
13074;DHT22;6603;47.066;15.396;2022-12-13T15:40:47;-2.70;66.50
13074;DHT22;6603;47.066;15.396;2022-12-13T15:43:22;-2.70;1.00
13074;DHT22;6603;47.066;15.396;2022-12-13T15:45:50;-2.60;1.00
13074;DHT22;6603;47.066;15.396;2022-12-13T15:48:24;-2.70;1.00
13074;DHT22;6603;47.066;15.396;2022-12-13T15:51:06;-3.00;99.90
13074;DHT22;6603;47.066;15.396;2022-12-13T15:53:33;-3.20;1.00
13074;DHT22;6603;47.066;15.396;2022-12-13T15:55:59;-2.90;99.90
13074;DHT22;6603;47.066;15.396;2022-12-13T15:58:30;-3.00;1.00
13074;DHT22;6603;47.066;15.396;2022-12-13T16:00:56;-3.10;1.00
13074;DHT22;6603;47.066;15.396;2022-12-13T16:03:25;-2.90;1.00
13074;DHT22;6603;47.066;15.396;2022-12-13T16:05:55;-2.90;99.90
13074;DHT22;6603;47.066;15.396;2022-12-13T16:08:29;-3.00;99.90
13074;DHT22;6603;47.066;15.396;2022-12-13T16:10:56;-3.00;1.00
13074;DHT22;6603;47.066;15.396;2022-12-13T16:13:28;-3.30;1.00
13074;DHT22;6603;47.066;15.396;2022-12-13T16:16:00;-3.20;48.70
13074;DHT22;6603;47.066;15.396;2022-12-13T16:18:52;-3.30;99.90
13074;DHT22;6603;47.066;15.396;2022-12-13T16:21:20;-3.40;70.00
13074;DHT22;6603;47.066;15.396;2022-12-13T16:23:46;-3.40;1.00
13074;DHT22;6603;47.066;15.396;2022-12-13T16:26:12;-3.40;99.90
13074;DHT22;6603;47.066;15.396;2022-12-13T16:28:40;-3.40;99.90
13074;DHT22;6603;47.066;15.396;2022-12-13T16:31:23;-3.60;24.20
13074;DHT22;6603;47.066;15.396;2022-12-13T16:33:50;-3.40;99.90
13074;DHT22;6603;47.066;15.396;2022-12-13T16:36:17;-3.50;1.00
13074;DHT22;6603;47.066;15.396;2022-12-13T16:38:43;-3.50;96.60
13074;DHT22;6603;47.066;15.396;2022-12-13T16:41:09;-3.30;1.00
13074;DHT22;6603;47.066;15.396;2022-12-13T16:43:49;-3.30;1.00
13074;DHT22;6603;47.066;15.396;2022-12-13T16:46:17;-3.50;99.90
13074;DHT22;6603;47.066;15.396;2022-12-13T16:48:43;-3.80;1.00
13074;DHT22;6603;47.066;15.396;2022-12-13T16:51:09;-3.80;99.90
13074;DHT22;6603;47.066;15.396;2022-12-13T16:53:35;-3.60;99.90
13074;DHT22;6603;47.066;15.396;2022-12-13T16:56:01;-3.70;1.00
13074;DHT22;6603;47.066;15.396;2022-12-13T16:58:27;-3.70;1.00
13074;DHT22;6603;47.066;15.396;2022-12-13T17:00:52;-3.80;1.00
13074;DHT22;6603;47.066;15.396;2022-12-13T17:03:20;-3.90;1.00
13074;DHT22;6603;47.066;15.396;2022-12-13T17:05:46;-4.00;99.90
13074;DHT22;6603;47.066;15.396;2022-12-13T17:10:45;-4.10;99.90
13074;DHT22;6603;47.066;15.396;2022-12-13T17:13:11;-4.00;1.00
13074;DHT22;6603;47.066;15.396;2022-12-13T17:15:37;-4.00;99.90
13074;DHT22;6603;47.066;15.396;2022-12-13T17:18:03;-4.20;1.00
13074;DHT22;6603;47.066;15.396;2022-12-13T17:20:29;-4.00;1.00
13074;DHT22;6603;47.066;15.396;2022-12-13T17:22:56;-4.10;1.00
13074;DHT22;6603;47.066;15.396;2022-12-13T17:25:22;-4.00;1.00
13074;DHT22;6603;47.066;15.396;2022-12-13T17:27:48;-3.90;1.00
13074;DHT22;6603;47.066;15.396;2022-12-13T17:30:16;-3.90;99.90
13074;DHT22;6603;47.066;15.396;2022-12-13T17:32:43;-4.20;99.90
13074;DHT22;6603;47.066;15.396;2022-12-13T17:35:09;-4.30;1.00
13074;DHT22;6603;47.066;15.396;2022-12-13T17:37:37;-4.20;1.00
13074;DHT22;6603;47.066;15.396;2022-12-13T17:40:03;-4.20;1.00
13074;DHT22;6603;47.066;15.396;2022-12-13T17:42:32;-4.50;1.00
13074;DHT22;6603;47.066;15.396;2022-12-13T17:44:58;-4.40;1.00
13074;DHT22;6603;47.066;15.396;2022-12-13T17:47:24;-4.40;1.00
13074;DHT22;6603;47.066;15.396;2022-12-13T17:49:49;-4.20;1.00
13074;DHT22;6603;47.066;15.396;2022-12-13T17:52:15;-4.20;1.00
13074;DHT22;6603;47.066;15.396;2022-12-13T17:54:41;-4.30;1.00
13074;DHT22;6603;47.066;15.396;2022-12-13T17:57:07;-4.50;1.00
13074;DHT22;6603;47.066;15.396;2022-12-13T17:59:35;-4.40;1.00
13074;DHT22;6603;47.066;15.396;2022-12-13T18:02:04;-4.40;1.00
13074;DHT22;6603;47.066;15.396;2022-12-13T18:04:30;-4.60;1.00
13074;DHT22;6603;47.066;15.396;2022-12-13T18:06:56;-4.40;1.00
13074;DHT22;6603;47.066;15.396;2022-12-13T18:09:22;-4.50;1.00
13074;DHT22;6603;47.066;15.396;2022-12-13T18:11:47;-4.70;1.00
13074;DHT22;6603;47.066;15.396;2022-12-13T18:14:13;-4.60;1.00
13074;DHT22;6603;47.066;15.396;2022-12-13T18:16:40;-4.60;1.00
13074;DHT22;6603;47.066;15.396;2022-12-13T18:19:07;-4.60;1.00
13074;DHT22;6603;47.066;15.396;2022-12-13T18:21:33;-4.40;1.00
13074;DHT22;6603;47.066;15.396;2022-12-13T18:24:00;-4.60;1.00
13074;DHT22;6603;47.066;15.396;2022-12-13T18:26:25;-4.80;1.00
13074;DHT22;6603;47.066;15.396;2022-12-13T18:28:51;-4.90;1.00
13074;DHT22;6603;47.066;15.396;2022-12-13T18:31:20;-4.60;1.00
13074;DHT22;6603;47.066;15.396;2022-12-13T18:33:49;-4.70;1.00